sensor_id;sensor_type;location;lat;lon;timestamp;P1;durP1;ratioP1;P2;durP2;ratioP2
12956;SDS011;6543;48.836;10.092;2022-08-30T00:01:01;10.27;;;7.00;;
12956;SDS011;6543;48.836;10.092;2022-08-30T00:03:28;11.00;;;7.07;;
12956;SDS011;6543;48.836;10.092;2022-08-30T00:05:56;12.67;;;8.00;;
12956;SDS011;6543;48.836;10.092;2022-08-30T00:08:23;9.13;;;7.23;;
12956;SDS011;6543;48.836;10.092;2022-08-30T00:10:50;16.00;;;9.90;;
12956;SDS011;6543;48.836;10.092;2022-08-30T00:13:18;15.87;;;11.37;;
12956;SDS011;6543;48.836;10.092;2022-08-30T00:15:46;20.90;;;11.90;;
12956;SDS011;6543;48.836;10.092;2022-08-30T00:18:13;14.67;;;10.63;;
12956;SDS011;6543;48.836;10.092;2022-08-30T00:20:42;14.57;;;9.00;;
12956;SDS011;6543;48.836;10.092;2022-08-30T00:23:11;12.20;;;8.10;;
12956;SDS011;6543;48.836;10.092;2022-08-30T00:25:38;9.13;;;7.03;;
12956;SDS011;6543;48.836;10.092;2022-08-30T00:28:06;10.83;;;5.83;;
12956;SDS011;6543;48.836;10.092;2022-08-30T00:30:33;10.00;;;6.53;;
12956;SDS011;6543;48.836;10.092;2022-08-30T00:33:03;24.30;;;15.00;;
12956;SDS011;6543;48.836;10.092;2022-08-30T00:35:30;22.77;;;13.97;;
12956;SDS011;6543;48.836;10.092;2022-08-30T00:37:57;24.50;;;14.63;;
12956;SDS011;6543;48.836;10.092;2022-08-30T00:40:26;20.47;;;13.87;;
12956;SDS011;6543;48.836;10.092;2022-08-30T00:42:54;19.20;;;12.00;;
12956;SDS011;6543;48.836;10.092;2022-08-30T00:45:24;11.53;;;8.70;;
12956;SDS011;6543;48.836;10.092;2022-08-30T00:47:53;13.80;;;8.80;;
12956;SDS011;6543;48.836;10.092;2022-08-30T00:50:21;8.73;;;7.00;;
12956;SDS011;6543;48.836;10.092;2022-08-30T00:52:51;16.60;;;9.10;;
12956;SDS011;6543;48.836;10.092;2022-08-30T00:55:21;12.47;;;8.50;;
12956;SDS011;6543;48.836;10.092;2022-08-30T00:57:50;11.60;;;8.17;;
12956;SDS011;6543;48.836;10.092;2022-08-30T01:00:21;14.80;;;9.47;;
12956;SDS011;6543;48.836;10.092;2022-08-30T01:02:48;12.00;;;7.57;;
12956;SDS011;6543;48.836;10.092;2022-08-30T01:05:14;13.00;;;7.37;;
12956;SDS011;6543;48.836;10.092;2022-08-30T01:07:41;13.17;;;8.30;;
12956;SDS011;6543;48.836;10.092;2022-08-30T01:10:09;18.83;;;10.23;;
12956;SDS011;6543;48.836;10.092;2022-08-30T01:12:39;21.73;;;13.13;;
12956;SDS011;6543;48.836;10.092;2022-08-30T01:15:10;16.03;;;9.60;;
12956;SDS011;6543;48.836;10.092;2022-08-30T01:17:39;16.80;;;10.33;;
12956;SDS011;6543;48.836;10.092;2022-08-30T01:20:08;15.90;;;10.03;;
12956;SDS011;6543;48.836;10.092;2022-08-30T01:22:38;13.03;;;7.60;;
12956;SDS011;6543;48.836;10.092;2022-08-30T01:25:28;13.60;;;6.73;;
12956;SDS011;6543;48.836;10.092;2022-08-30T01:27:57;11.60;;;6.20;;
12956;SDS011;6543;48.836;10.092;2022-08-30T01:30:28;10.47;;;5.53;;
12956;SDS011;6543;48.836;10.092;2022-08-30T01:32:57;10.47;;;6.53;;
12956;SDS011;6543;48.836;10.092;2022-08-30T01:35:27;10.40;;;6.47;;
12956;SDS011;6543;48.836;10.092;2022-08-30T01:37:58;11.57;;;5.97;;
12956;SDS011;6543;48.836;10.092;2022-08-30T01:40:25;5.93;;;5.07;;
12956;SDS011;6543;48.836;10.092;2022-08-30T01:42:53;8.57;;;4.87;;
12956;SDS011;6543;48.836;10.092;2022-08-30T01:45:20;8.13;;;5.33;;
12956;SDS011;6543;48.836;10.092;2022-08-30T01:47:47;8.43;;;6.23;;
12956;SDS011;6543;48.836;10.092;2022-08-30T01:50:14;7.87;;;5.97;;
12956;SDS011;6543;48.836;10.092;2022-08-30T01:52:41;7.90;;;6.80;;
12956;SDS011;6543;48.836;10.092;2022-08-30T01:55:09;7.57;;;6.67;;
12956;SDS011;6543;48.836;10.092;2022-08-30T01:57:36;11.83;;;7.20;;
12956;SDS011;6543;48.836;10.092;2022-08-30T02:00:05;9.07;;;6.77;;
12956;SDS011;6543;48.836;10.092;2022-08-30T02:02:33;9.40;;;6.17;;
12956;SDS011;6543;48.836;10.092;2022-08-30T02:07:31;12.07;;;6.83;;
12956;SDS011;6543;48.836;10.092;2022-08-30T02:09:58;9.40;;;6.00;;
12956;SDS011;6543;48.836;10.092;2022-08-30T02:12:25;9.20;;;5.63;;
12956;SDS011;6543;48.836;10.092;2022-08-30T02:14:52;8.33;;;6.70;;
12956;SDS011;6543;48.836;10.092;2022-08-30T02:17:21;6.93;;;6.03;;
12956;SDS011;6543;48.836;10.092;2022-08-30T02:19:48;8.77;;;6.97;;
12956;SDS011;6543;48.836;10.092;2022-08-30T02:22:15;8.47;;;6.97;;
12956;SDS011;6543;48.836;10.092;2022-08-30T02:24:41;11.33;;;7.67;;
12956;SDS011;6543;48.836;10.092;2022-08-30T02:27:08;11.60;;;7.33;;
12956;SDS011;6543;48.836;10.092;2022-08-30T02:29:35;11.80;;;7.20;;
12956;SDS011;6543;48.836;10.092;2022-08-30T02:32:02;11.87;;;7.33;;
12956;SDS011;6543;48.836;10.092;2022-08-30T02:34:31;14.50;;;7.27;;
12956;SDS011;6543;48.836;10.092;2022-08-30T02:36:58;9.93;;;6.90;;
12956;SDS011;6543;48.836;10.092;2022-08-30T02:39:25;14.33;;;8.00;;
12956;SDS011;6543;48.836;10.092;2022-08-30T02:41:52;8.70;;;7.70;;
12956;SDS011;6543;48.836;10.092;2022-08-30T02:44:19;9.13;;;7.83;;
12956;SDS011;6543;48.836;10.092;2022-08-30T02:46:46;10.37;;;8.13;;
12956;SDS011;6543;48.836;10.092;2022-08-30T02:49:13;11.63;;;8.43;;
12956;SDS011;6543;48.836;10.092;2022-08-30T02:51:41;11.60;;;7.80;;
12956;SDS011;6543;48.836;10.092;2022-08-30T02:54:08;8.77;;;7.73;;
12956;SDS011;6543;48.836;10.092;2022-08-30T02:56:39;10.53;;;7.53;;
12956;SDS011;6543;48.836;10.092;2022-08-30T02:59:07;10.20;;;7.60;;
12956;SDS011;6543;48.836;10.092;2022-08-30T03:01:34;11.43;;;8.00;;
12956;SDS011;6543;48.836;10.092;2022-08-30T03:04:03;10.63;;;7.53;;
12956;SDS011;6543;48.836;10.092;2022-08-30T03:06:30;8.90;;;7.13;;
12956;SDS011;6543;48.836;10.092;2022-08-30T03:08:58;11.00;;;7.47;;
12956;SDS011;6543;48.836;10.092;2022-08-30T03:11:25;12.40;;;8.33;;
12956;SDS011;6543;48.836;10.092;2022-08-30T03:13:52;11.63;;;9.07;;
12956;SDS011;6543;48.836;10.092;2022-08-30T03:16:19;11.87;;;9.27;;
12956;SDS011;6543;48.836;10.092;2022-08-30T03:18:46;13.17;;;9.57;;
12956;SDS011;6543;48.836;10.092;2022-08-30T03:21:14;15.90;;;10.33;;
12956;SDS011;6543;48.836;10.092;2022-08-30T03:23:42;15.60;;;10.67;;
12956;SDS011;6543;48.836;10.092;2022-08-30T03:26:10;8.93;;;7.57;;
12956;SDS011;6543;48.836;10.092;2022-08-30T03:28:39;9.40;;;8.07;;
12956;SDS011;6543;48.836;10.092;2022-08-30T03:31:07;8.43;;;7.20;;
12956;SDS011;6543;48.836;10.092;2022-08-30T03:33:34;9.70;;;7.10;;
12956;SDS011;6543;48.836;10.092;2022-08-30T03:36:01;10.47;;;6.50;;
12956;SDS011;6543;48.836;10.092;2022-08-30T03:38:29;10.13;;;6.07;;
12956;SDS011;6543;48.836;10.092;2022-08-30T03:40:56;13.10;;;6.37;;
12956;SDS011;6543;48.836;10.092;2022-08-30T03:43:24;6.07;;;4.90;;
12956;SDS011;6543;48.836;10.092;2022-08-30T03:45:51;8.63;;;5.60;;
12956;SDS011;6543;48.836;10.092;2022-08-30T03:48:18;5.43;;;4.93;;
12956;SDS011;6543;48.836;10.092;2022-08-30T03:50:45;7.07;;;5.40;;
12956;SDS011;6543;48.836;10.092;2022-08-30T03:53:12;8.90;;;5.07;;
12956;SDS011;6543;48.836;10.092;2022-08-30T03:55:39;8.43;;;5.13;;
12956;SDS011;6543;48.836;10.092;2022-08-30T03:58:06;8.20;;;4.37;;
12956;SDS011;6543;48.836;10.092;2022-08-30T04:00:34;6.70;;;4.87;;
12956;SDS011;6543;48.836;10.092;2022-08-30T04:03:01;9.33;;;5.23;;
12956;SDS011;6543;48.836;10.092;2022-08-30T04:05:28;9.47;;;5.17;;
12956;SDS011;6543;48.836;10.092;2022-08-30T04:07:55;6.83;;;5.60;;
12956;SDS011;6543;48.836;10.092;2022-08-30T04:10:22;12.50;;;5.30;;
12956;SDS011;6543;48.836;10.092;2022-08-30T04:12:50;7.87;;;5.80;;
12956;SDS011;6543;48.836;10.092;2022-08-30T04:15:17;8.83;;;6.57;;
12956;SDS011;6543;48.836;10.092;2022-08-30T04:17:46;9.57;;;5.93;;
12956;SDS011;6543;48.836;10.092;2022-08-30T04:20:13;7.37;;;6.57;;
12956;SDS011;6543;48.836;10.092;2022-08-30T04:22:40;10.17;;;6.70;;
12956;SDS011;6543;48.836;10.092;2022-08-30T04:25:08;9.70;;;7.13;;
12956;SDS011;6543;48.836;10.092;2022-08-30T04:27:35;15.40;;;8.47;;
12956;SDS011;6543;48.836;10.092;2022-08-30T04:30:02;10.67;;;7.57;;
12956;SDS011;6543;48.836;10.092;2022-08-30T04:32:30;12.83;;;7.20;;
12956;SDS011;6543;48.836;10.092;2022-08-30T04:35:01;9.63;;;7.90;;
12956;SDS011;6543;48.836;10.092;2022-08-30T04:37:28;16.60;;;7.37;;
12956;SDS011;6543;48.836;10.092;2022-08-30T04:39:55;13.17;;;7.57;;
12956;SDS011;6543;48.836;10.092;2022-08-30T04:42:24;10.90;;;7.50;;
12956;SDS011;6543;48.836;10.092;2022-08-30T04:44:52;13.20;;;8.00;;
12956;SDS011;6543;48.836;10.092;2022-08-30T04:47:19;10.90;;;7.93;;
12956;SDS011;6543;48.836;10.092;2022-08-30T04:49:46;11.37;;;7.83;;
12956;SDS011;6543;48.836;10.092;2022-08-30T04:52:14;10.77;;;8.07;;
12956;SDS011;6543;48.836;10.092;2022-08-30T04:54:41;9.33;;;8.07;;
12956;SDS011;6543;48.836;10.092;2022-08-30T04:57:07;11.87;;;7.57;;
12956;SDS011;6543;48.836;10.092;2022-08-30T04:59:34;9.97;;;8.13;;
12956;SDS011;6543;48.836;10.092;2022-08-30T05:02:03;9.63;;;6.57;;
12956;SDS011;6543;48.836;10.092;2022-08-30T05:04:30;11.37;;;6.53;;
12956;SDS011;6543;48.836;10.092;2022-08-30T05:06:57;9.13;;;6.23;;
12956;SDS011;6543;48.836;10.092;2022-08-30T05:09:25;8.90;;;6.80;;
12956;SDS011;6543;48.836;10.092;2022-08-30T05:11:52;7.17;;;5.73;;
12956;SDS011;6543;48.836;10.092;2022-08-30T05:14:19;8.23;;;5.70;;
12956;SDS011;6543;48.836;10.092;2022-08-30T05:16:45;8.57;;;5.90;;
12956;SDS011;6543;48.836;10.092;2022-08-30T05:19:13;13.80;;;6.07;;
12956;SDS011;6543;48.836;10.092;2022-08-30T05:21:40;10.97;;;6.40;;
12956;SDS011;6543;48.836;10.092;2022-08-30T05:24:07;10.60;;;6.70;;
12956;SDS011;6543;48.836;10.092;2022-08-30T05:26:36;7.10;;;5.60;;
12956;SDS011;6543;48.836;10.092;2022-08-30T05:29:04;7.43;;;6.03;;
12956;SDS011;6543;48.836;10.092;2022-08-30T05:31:31;9.67;;;6.07;;
12956;SDS011;6543;48.836;10.092;2022-08-30T05:34:00;9.70;;;7.67;;
12956;SDS011;6543;48.836;10.092;2022-08-30T05:36:28;15.37;;;9.90;;
12956;SDS011;6543;48.836;10.092;2022-08-30T05:38:57;18.13;;;8.80;;
12956;SDS011;6543;48.836;10.092;2022-08-30T05:41:24;13.40;;;7.90;;
12956;SDS011;6543;48.836;10.092;2022-08-30T05:43:53;9.23;;;7.07;;
12956;SDS011;6543;48.836;10.092;2022-08-30T05:46:21;10.50;;;7.67;;
12956;SDS011;6543;48.836;10.092;2022-08-30T05:48:48;10.57;;;6.90;;
12956;SDS011;6543;48.836;10.092;2022-08-30T05:51:16;8.10;;;6.00;;
12956;SDS011;6543;48.836;10.092;2022-08-30T05:53:44;7.97;;;6.33;;
12956;SDS011;6543;48.836;10.092;2022-08-30T05:56:14;10.63;;;7.03;;
12956;SDS011;6543;48.836;10.092;2022-08-30T05:58:43;11.17;;;6.97;;
12956;SDS011;6543;48.836;10.092;2022-08-30T06:01:18;12.57;;;6.40;;
12956;SDS011;6543;48.836;10.092;2022-08-30T06:03:47;14.37;;;7.60;;
12956;SDS011;6543;48.836;10.092;2022-08-30T06:06:14;12.57;;;7.87;;
12956;SDS011;6543;48.836;10.092;2022-08-30T06:08:41;15.13;;;7.60;;
12956;SDS011;6543;48.836;10.092;2022-08-30T06:11:09;13.57;;;6.80;;
12956;SDS011;6543;48.836;10.092;2022-08-30T06:13:37;11.07;;;7.40;;
12956;SDS011;6543;48.836;10.092;2022-08-30T06:16:04;12.67;;;7.83;;
12956;SDS011;6543;48.836;10.092;2022-08-30T06:18:33;18.50;;;7.77;;
12956;SDS011;6543;48.836;10.092;2022-08-30T06:21:00;15.33;;;7.80;;
12956;SDS011;6543;48.836;10.092;2022-08-30T06:23:27;15.80;;;7.27;;
12956;SDS011;6543;48.836;10.092;2022-08-30T06:25:54;10.30;;;6.47;;
12956;SDS011;6543;48.836;10.092;2022-08-30T06:28:21;14.27;;;6.90;;
12956;SDS011;6543;48.836;10.092;2022-08-30T06:30:48;11.67;;;6.63;;
12956;SDS011;6543;48.836;10.092;2022-08-30T06:33:15;8.13;;;6.27;;
12956;SDS011;6543;48.836;10.092;2022-08-30T06:35:44;8.23;;;5.67;;
12956;SDS011;6543;48.836;10.092;2022-08-30T06:38:11;8.87;;;5.93;;
12956;SDS011;6543;48.836;10.092;2022-08-30T06:40:38;14.67;;;6.40;;
12956;SDS011;6543;48.836;10.092;2022-08-30T06:43:04;9.77;;;5.53;;
12956;SDS011;6543;48.836;10.092;2022-08-30T06:45:32;9.77;;;6.37;;
12956;SDS011;6543;48.836;10.092;2022-08-30T06:47:59;10.57;;;6.07;;
12956;SDS011;6543;48.836;10.092;2022-08-30T06:50:26;12.80;;;6.77;;
12956;SDS011;6543;48.836;10.092;2022-08-30T06:52:55;12.77;;;7.10;;
12956;SDS011;6543;48.836;10.092;2022-08-30T06:55:28;12.80;;;6.27;;
12956;SDS011;6543;48.836;10.092;2022-08-30T06:57:57;8.93;;;6.63;;
12956;SDS011;6543;48.836;10.092;2022-08-30T07:00:24;16.10;;;6.43;;
12956;SDS011;6543;48.836;10.092;2022-08-30T07:02:51;16.37;;;7.53;;
12956;SDS011;6543;48.836;10.092;2022-08-30T07:05:18;11.43;;;6.67;;
12956;SDS011;6543;48.836;10.092;2022-08-30T07:07:47;11.90;;;6.63;;
12956;SDS011;6543;48.836;10.092;2022-08-30T07:10:15;15.17;;;6.27;;
12956;SDS011;6543;48.836;10.092;2022-08-30T07:12:42;11.37;;;5.43;;
12956;SDS011;6543;48.836;10.092;2022-08-30T07:15:09;10.07;;;6.00;;
12956;SDS011;6543;48.836;10.092;2022-08-30T07:17:37;10.07;;;6.88;;
12956;SDS011;6543;48.836;10.092;2022-08-30T07:20:21;12.63;;;7.07;;
12956;SDS011;6543;48.836;10.092;2022-08-30T07:22:48;14.75;;;7.55;;
12956;SDS011;6543;48.836;10.092;2022-08-30T07:25:16;9.45;;;6.28;;
12956;SDS011;6543;48.836;10.092;2022-08-30T07:27:43;9.82;;;7.15;;
12956;SDS011;6543;48.836;10.092;2022-08-30T07:30:10;10.43;;;6.47;;
12956;SDS011;6543;48.836;10.092;2022-08-30T07:32:38;9.77;;;5.93;;
12956;SDS011;6543;48.836;10.092;2022-08-30T07:35:05;6.15;;;4.47;;
12956;SDS011;6543;48.836;10.092;2022-08-30T07:37:32;8.20;;;4.15;;
12956;SDS011;6543;48.836;10.092;2022-08-30T07:40:00;12.07;;;4.97;;
12956;SDS011;6543;48.836;10.092;2022-08-30T07:42:29;6.28;;;4.72;;
12956;SDS011;6543;48.836;10.092;2022-08-30T07:44:55;15.15;;;5.65;;
12956;SDS011;6543;48.836;10.092;2022-08-30T07:47:22;6.93;;;4.55;;
12956;SDS011;6543;48.836;10.092;2022-08-30T07:49:49;10.15;;;4.40;;
12956;SDS011;6543;48.836;10.092;2022-08-30T07:52:16;7.90;;;4.72;;
12956;SDS011;6543;48.836;10.092;2022-08-30T07:54:43;9.40;;;4.55;;
12956;SDS011;6543;48.836;10.092;2022-08-30T07:57:10;7.55;;;4.70;;
12956;SDS011;6543;48.836;10.092;2022-08-30T07:59:38;5.72;;;4.00;;
12956;SDS011;6543;48.836;10.092;2022-08-30T08:02:05;10.65;;;4.50;;
12956;SDS011;6543;48.836;10.092;2022-08-30T08:04:33;7.68;;;4.47;;
12956;SDS011;6543;48.836;10.092;2022-08-30T08:07:00;6.05;;;4.47;;
12956;SDS011;6543;48.836;10.092;2022-08-30T08:09:27;7.30;;;4.22;;
12956;SDS011;6543;48.836;10.092;2022-08-30T08:11:54;7.38;;;4.50;;
12956;SDS011;6543;48.836;10.092;2022-08-30T08:14:20;5.72;;;5.13;;
12956;SDS011;6543;48.836;10.092;2022-08-30T08:16:49;7.90;;;5.28;;
12956;SDS011;6543;48.836;10.092;2022-08-30T08:19:16;5.40;;;4.90;;
12956;SDS011;6543;48.836;10.092;2022-08-30T08:21:43;5.63;;;5.05;;
12956;SDS011;6543;48.836;10.092;2022-08-30T08:24:10;8.32;;;5.10;;
12956;SDS011;6543;48.836;10.092;2022-08-30T08:26:39;7.43;;;4.88;;
12956;SDS011;6543;48.836;10.092;2022-08-30T08:29:07;6.18;;;4.90;;
12956;SDS011;6543;48.836;10.092;2022-08-30T08:31:35;8.07;;;4.57;;
12956;SDS011;6543;48.836;10.092;2022-08-30T08:34:03;5.57;;;4.43;;
12956;SDS011;6543;48.836;10.092;2022-08-30T08:36:31;6.03;;;4.65;;
12956;SDS011;6543;48.836;10.092;2022-08-30T08:38:58;5.07;;;4.60;;
12956;SDS011;6543;48.836;10.092;2022-08-30T08:41:30;6.07;;;3.97;;
12956;SDS011;6543;48.836;10.092;2022-08-30T08:44:07;6.70;;;4.85;;
12956;SDS011;6543;48.836;10.092;2022-08-30T08:46:40;4.72;;;4.22;;
12956;SDS011;6543;48.836;10.092;2022-08-30T08:49:15;4.68;;;4.28;;
12956;SDS011;6543;48.836;10.092;2022-08-30T08:51:42;7.30;;;3.80;;
12956;SDS011;6543;48.836;10.092;2022-08-30T08:54:29;7.47;;;4.45;;
12956;SDS011;6543;48.836;10.092;2022-08-30T08:57:01;4.75;;;4.35;;
12956;SDS011;6543;48.836;10.092;2022-08-30T08:59:28;6.93;;;3.83;;
12956;SDS011;6543;48.836;10.092;2022-08-30T09:01:57;6.55;;;4.05;;
12956;SDS011;6543;48.836;10.092;2022-08-30T09:04:31;5.88;;;4.25;;
12956;SDS011;6543;48.836;10.092;2022-08-30T09:07:01;5.10;;;4.13;;
12956;SDS011;6543;48.836;10.092;2022-08-30T09:09:31;7.72;;;4.82;;
12956;SDS011;6543;48.836;10.092;2022-08-30T09:12:00;5.07;;;4.15;;
12956;SDS011;6543;48.836;10.092;2022-08-30T09:14:28;7.35;;;4.03;;
12956;SDS011;6543;48.836;10.092;2022-08-30T09:16:59;7.85;;;4.50;;
12956;SDS011;6543;48.836;10.092;2022-08-30T09:19:30;6.78;;;4.53;;
12956;SDS011;6543;48.836;10.092;2022-08-30T09:22:00;6.50;;;4.00;;
12956;SDS011;6543;48.836;10.092;2022-08-30T09:24:37;9.55;;;3.70;;
12956;SDS011;6543;48.836;10.092;2022-08-30T09:27:13;6.72;;;4.38;;
12956;SDS011;6543;48.836;10.092;2022-08-30T09:29:50;6.32;;;4.38;;
12956;SDS011;6543;48.836;10.092;2022-08-30T09:32:30;5.43;;;4.63;;
12956;SDS011;6543;48.836;10.092;2022-08-30T09:35:00;6.78;;;4.20;;
12956;SDS011;6543;48.836;10.092;2022-08-30T09:37:30;5.90;;;4.30;;
12956;SDS011;6543;48.836;10.092;2022-08-30T09:40:13;6.43;;;4.40;;
12956;SDS011;6543;48.836;10.092;2022-08-30T09:42:59;5.38;;;4.65;;
12956;SDS011;6543;48.836;10.092;2022-08-30T09:45:29;7.25;;;4.07;;
12956;SDS011;6543;48.836;10.092;2022-08-30T09:47:58;4.97;;;4.45;;
12956;SDS011;6543;48.836;10.092;2022-08-30T09:50:28;5.10;;;4.03;;
12956;SDS011;6543;48.836;10.092;2022-08-30T09:53:02;8.70;;;4.82;;
12956;SDS011;6543;48.836;10.092;2022-08-30T09:55:45;5.47;;;4.38;;
12956;SDS011;6543;48.836;10.092;2022-08-30T09:58:21;6.57;;;4.88;;
12956;SDS011;6543;48.836;10.092;2022-08-30T10:00:55;7.32;;;3.97;;
12956;SDS011;6543;48.836;10.092;2022-08-30T10:03:31;7.85;;;4.07;;
12956;SDS011;6543;48.836;10.092;2022-08-30T10:06:07;9.45;;;4.40;;
12956;SDS011;6543;48.836;10.092;2022-08-30T10:08:41;4.95;;;4.32;;
12956;SDS011;6543;48.836;10.092;2022-08-30T10:11:18;4.40;;;3.85;;
12956;SDS011;6543;48.836;10.092;2022-08-30T10:14:01;5.38;;;3.85;;
12956;SDS011;6543;48.836;10.092;2022-08-30T10:16:43;4.45;;;4.03;;
12956;SDS011;6543;48.836;10.092;2022-08-30T10:19:22;5.93;;;3.72;;
12956;SDS011;6543;48.836;10.092;2022-08-30T10:22:00;4.68;;;3.60;;
12956;SDS011;6543;48.836;10.092;2022-08-30T10:24:31;4.50;;;3.83;;
12956;SDS011;6543;48.836;10.092;2022-08-30T10:27:04;6.20;;;3.47;;
12956;SDS011;6543;48.836;10.092;2022-08-30T10:29:35;5.80;;;3.92;;
12956;SDS011;6543;48.836;10.092;2022-08-30T10:32:10;5.75;;;3.97;;
12956;SDS011;6543;48.836;10.092;2022-08-30T10:34:44;9.75;;;4.05;;
12956;SDS011;6543;48.836;10.092;2022-08-30T10:37:18;7.70;;;3.65;;
12956;SDS011;6543;48.836;10.092;2022-08-30T10:39:49;4.25;;;3.70;;
12956;SDS011;6543;48.836;10.092;2022-08-30T10:42:18;5.38;;;3.80;;
12956;SDS011;6543;48.836;10.092;2022-08-30T10:44:49;5.82;;;3.92;;
12956;SDS011;6543;48.836;10.092;2022-08-30T10:47:22;5.88;;;3.88;;
12956;SDS011;6543;48.836;10.092;2022-08-30T10:49:59;8.32;;;3.53;;
12956;SDS011;6543;48.836;10.092;2022-08-30T10:52:40;4.03;;;3.53;;
12956;SDS011;6543;48.836;10.092;2022-08-30T10:55:13;5.47;;;3.83;;
12956;SDS011;6543;48.836;10.092;2022-08-30T10:57:45;4.70;;;4.18;;
12956;SDS011;6543;48.836;10.092;2022-08-30T11:00:14;4.60;;;3.67;;
12956;SDS011;6543;48.836;10.092;2022-08-30T11:03:02;4.60;;;3.50;;
12956;SDS011;6543;48.836;10.092;2022-08-30T11:05:54;5.32;;;3.28;;
12956;SDS011;6543;48.836;10.092;2022-08-30T11:08:43;6.60;;;3.70;;
12956;SDS011;6543;48.836;10.092;2022-08-30T11:11:29;4.35;;;3.40;;
12956;SDS011;6543;48.836;10.092;2022-08-30T11:14:07;10.63;;;4.10;;
12956;SDS011;6543;48.836;10.092;2022-08-30T11:16:38;6.05;;;3.80;;
12956;SDS011;6543;48.836;10.092;2022-08-30T11:19:12;6.60;;;4.20;;
12956;SDS011;6543;48.836;10.092;2022-08-30T11:21:43;6.90;;;3.67;;
12956;SDS011;6543;48.836;10.092;2022-08-30T11:24:12;7.53;;;4.03;;
12956;SDS011;6543;48.836;10.092;2022-08-30T11:26:58;7.22;;;4.22;;
12956;SDS011;6543;48.836;10.092;2022-08-30T11:29:32;4.55;;;4.13;;
12956;SDS011;6543;48.836;10.092;2022-08-30T11:35:00;4.82;;;4.05;;
12956;SDS011;6543;48.836;10.092;2022-08-30T11:37:37;5.32;;;4.05;;
12956;SDS011;6543;48.836;10.092;2022-08-30T11:40:08;4.50;;;4.10;;
12956;SDS011;6543;48.836;10.092;2022-08-30T11:42:56;4.97;;;4.40;;
12956;SDS011;6543;48.836;10.092;2022-08-30T11:45:45;7.22;;;3.95;;
12956;SDS011;6543;48.836;10.092;2022-08-30T11:51:31;5.05;;;3.72;;
12956;SDS011;6543;48.836;10.092;2022-08-30T11:54:11;7.00;;;3.88;;
12956;SDS011;6543;48.836;10.092;2022-08-30T11:56:51;3.80;;;3.50;;
12956;SDS011;6543;48.836;10.092;2022-08-30T11:59:29;6.90;;;3.95;;
12956;SDS011;6543;48.836;10.092;2022-08-30T12:02:02;7.53;;;4.10;;
12956;SDS011;6543;48.836;10.092;2022-08-30T12:04:35;7.57;;;4.13;;
12956;SDS011;6543;48.836;10.092;2022-08-30T12:07:08;5.05;;;3.90;;
12956;SDS011;6543;48.836;10.092;2022-08-30T12:12:45;6.55;;;3.60;;
12956;SDS011;6543;48.836;10.092;2022-08-30T12:18:27;4.15;;;3.75;;
12956;SDS011;6543;48.836;10.092;2022-08-30T12:21:00;3.88;;;3.55;;
12956;SDS011;6543;48.836;10.092;2022-08-30T12:23:36;5.97;;;4.30;;
12956;SDS011;6543;48.836;10.092;2022-08-30T12:26:12;5.60;;;3.60;;
12956;SDS011;6543;48.836;10.092;2022-08-30T12:28:49;6.63;;;3.70;;
12956;SDS011;6543;48.836;10.092;2022-08-30T12:31:19;7.30;;;3.83;;
12956;SDS011;6543;48.836;10.092;2022-08-30T12:33:49;5.00;;;3.50;;
12956;SDS011;6543;48.836;10.092;2022-08-30T12:36:30;3.72;;;3.35;;
12956;SDS011;6543;48.836;10.092;2022-08-30T12:39:04;3.85;;;3.30;;
12956;SDS011;6543;48.836;10.092;2022-08-30T12:41:32;7.82;;;3.65;;
12956;SDS011;6543;48.836;10.092;2022-08-30T12:44:01;8.35;;;4.18;;
12956;SDS011;6543;48.836;10.092;2022-08-30T12:46:29;6.75;;;3.92;;
12956;SDS011;6543;48.836;10.092;2022-08-30T12:48:56;3.83;;;3.42;;
12956;SDS011;6543;48.836;10.092;2022-08-30T12:51:25;5.32;;;3.53;;
12956;SDS011;6543;48.836;10.092;2022-08-30T12:53:58;3.85;;;3.40;;
12956;SDS011;6543;48.836;10.092;2022-08-30T12:56:46;5.78;;;3.47;;
12956;SDS011;6543;48.836;10.092;2022-08-30T13:02:11;6.25;;;3.47;;
12956;SDS011;6543;48.836;10.092;2022-08-30T13:04:41;5.68;;;3.72;;
12956;SDS011;6543;48.836;10.092;2022-08-30T13:07:22;3.42;;;3.13;;
12956;SDS011;6543;48.836;10.092;2022-08-30T13:10:05;3.83;;;3.35;;
12956;SDS011;6543;48.836;10.092;2022-08-30T13:12:38;4.32;;;3.70;;
12956;SDS011;6543;48.836;10.092;2022-08-30T13:15:18;5.95;;;3.22;;
12956;SDS011;6543;48.836;10.092;2022-08-30T13:20:42;6.03;;;3.63;;
12956;SDS011;6543;48.836;10.092;2022-08-30T13:23:10;6.30;;;3.25;;
12956;SDS011;6543;48.836;10.092;2022-08-30T13:25:46;5.82;;;3.83;;
12956;SDS011;6543;48.836;10.092;2022-08-30T13:28:13;3.78;;;3.47;;
12956;SDS011;6543;48.836;10.092;2022-08-30T13:30:41;4.85;;;3.72;;
12956;SDS011;6543;48.836;10.092;2022-08-30T13:33:08;9.85;;;3.95;;
12956;SDS011;6543;48.836;10.092;2022-08-30T13:35:35;5.80;;;3.83;;
12956;SDS011;6543;48.836;10.092;2022-08-30T13:38:02;7.68;;;3.70;;
12956;SDS011;6543;48.836;10.092;2022-08-30T13:40:29;5.25;;;3.50;;
12956;SDS011;6543;48.836;10.092;2022-08-30T13:42:57;5.82;;;3.53;;
12956;SDS011;6543;48.836;10.092;2022-08-30T13:45:24;6.30;;;4.20;;
12956;SDS011;6543;48.836;10.092;2022-08-30T13:47:53;7.80;;;3.30;;
12956;SDS011;6543;48.836;10.092;2022-08-30T13:50:20;6.65;;;3.72;;
12956;SDS011;6543;48.836;10.092;2022-08-30T13:52:47;4.50;;;3.67;;
12956;SDS011;6543;48.836;10.092;2022-08-30T13:55:14;3.83;;;3.42;;
12956;SDS011;6543;48.836;10.092;2022-08-30T13:57:41;6.18;;;3.67;;
12956;SDS011;6543;48.836;10.092;2022-08-30T14:00:10;5.88;;;3.53;;
12956;SDS011;6543;48.836;10.092;2022-08-30T14:02:41;4.45;;;3.70;;
12956;SDS011;6543;48.836;10.092;2022-08-30T14:05:09;5.70;;;3.67;;
12956;SDS011;6543;48.836;10.092;2022-08-30T14:07:36;8.63;;;3.40;;
12956;SDS011;6543;48.836;10.092;2022-08-30T14:10:04;4.40;;;4.00;;
12956;SDS011;6543;48.836;10.092;2022-08-30T14:12:31;5.00;;;4.03;;
12956;SDS011;6543;48.836;10.092;2022-08-30T14:14:58;4.13;;;3.47;;
12956;SDS011;6543;48.836;10.092;2022-08-30T14:17:27;7.22;;;3.92;;
12956;SDS011;6543;48.836;10.092;2022-08-30T14:19:56;7.78;;;4.38;;
12956;SDS011;6543;48.836;10.092;2022-08-30T14:22:25;5.95;;;3.67;;
12956;SDS011;6543;48.836;10.092;2022-08-30T14:24:52;5.20;;;3.80;;
12956;SDS011;6543;48.836;10.092;2022-08-30T14:27:19;5.63;;;3.80;;
12956;SDS011;6543;48.836;10.092;2022-08-30T14:29:47;4.50;;;3.65;;
12956;SDS011;6543;48.836;10.092;2022-08-30T14:32:14;4.85;;;3.72;;
12956;SDS011;6543;48.836;10.092;2022-08-30T14:34:41;7.50;;;4.25;;
12956;SDS011;6543;48.836;10.092;2022-08-30T14:37:08;4.07;;;3.67;;
12956;SDS011;6543;48.836;10.092;2022-08-30T14:39:36;6.05;;;4.53;;
12956;SDS011;6543;48.836;10.092;2022-08-30T14:42:03;8.07;;;4.07;;
12956;SDS011;6543;48.836;10.092;2022-08-30T14:44:31;9.77;;;4.38;;
12956;SDS011;6543;48.836;10.092;2022-08-30T14:46:58;6.80;;;3.95;;
12956;SDS011;6543;48.836;10.092;2022-08-30T14:49:25;9.65;;;3.97;;
12956;SDS011;6543;48.836;10.092;2022-08-30T14:51:52;10.10;;;3.95;;
12956;SDS011;6543;48.836;10.092;2022-08-30T14:54:20;6.35;;;4.25;;
12956;SDS011;6543;48.836;10.092;2022-08-30T14:56:49;7.80;;;3.72;;
12956;SDS011;6543;48.836;10.092;2022-08-30T14:59:16;5.22;;;3.78;;
12956;SDS011;6543;48.836;10.092;2022-08-30T15:01:44;9.32;;;3.85;;
12956;SDS011;6543;48.836;10.092;2022-08-30T15:04:12;4.43;;;3.60;;
12956;SDS011;6543;48.836;10.092;2022-08-30T15:06:40;7.22;;;4.43;;
12956;SDS011;6543;48.836;10.092;2022-08-30T15:09:09;5.78;;;4.07;;
12956;SDS011;6543;48.836;10.092;2022-08-30T15:11:38;6.97;;;4.00;;
12956;SDS011;6543;48.836;10.092;2022-08-30T15:14:09;9.55;;;4.00;;
12956;SDS011;6543;48.836;10.092;2022-08-30T15:16:36;6.75;;;3.75;;
12956;SDS011;6543;48.836;10.092;2022-08-30T15:19:05;6.45;;;4.32;;